SYR weather

Syracuse Hancock International Airport
Syracuse, New York, United States

Public forecast

Using degrees Fahrenheit for public forecast. Weather courtesy of forecast.io.

Current aviation weather report (METAR) for Syracuse Hancock International Airport

Retrieved 2019/12/16 04:42 UTC (0 seconds ago):

KSYR 160442Z 28006KT 3SM -SN BR SCT027 OVC037 M03/M05 A3016 RMK AO2 P0000 T10281050

Aviation forecast (TAF) for Syracuse Hancock International Airport

Retrieved 2019-12-16 00:42 UTC (4 hours ago):

TAF KSYR 152340Z 1600/1624 28015G25KT P6SM -SHSN BKN035 TEMPO 1600/1601 3SM -SHSN BKN025 FM160200 28010KT P6SM OVC035 TEMPO 1605/1608 BKN025 FM161000 VRB04KT P6SM BKN035 FM161600 VRB04KT P6SM SCT090